Time;durP1;ratioP1;P1;durP2;ratioP2;P2;SDS_P1;SDS_P2;PMS_P1;PMS_P2;Temp;Humidity;BMP_temperature;BMP_pressure;BME280_temperature;BME280_humidity;BME280_pressure;Samples;Min_cycle;Max_cycle;Signal;HPM_P1;HPM_P2
2023/04/13 00:00:57;;;;;;;5.32;1.70;;;;;;;-139.84;100.00;61778.28;5045630;28;20065;-74
2023/04/13 00:03:23;;;;;;;4.60;1.77;;;;;;;-139.84;100.00;61778.28;5020306;28;20033;-74
2023/04/13 00:05:51;;;;;;;5.15;2.10;;;;;;;-139.84;100.00;61778.28;5044581;28;20479;-74
2023/04/13 00:08:17;;;;;;;6.05;2.00;;;;;;;-139.84;100.00;61778.28;5041146;28;20401;-74
2023/04/13 00:10:44;;;;;;;3.00;1.65;;;;;;;-139.84;100.00;61778.28;5032285;28;20021;-74
2023/04/13 00:13:10;;;;;;;4.53;1.52;;;;;;;-139.84;100.00;61778.28;5034475;28;20040;-73
2023/04/13 00:15:39;;;;;;;3.70;1.52;;;;;;;-139.84;100.00;61778.28;5045189;28;20108;-74
2023/04/13 00:18:05;;;;;;;5.53;1.45;;;;;;;-139.84;100.00;61778.28;5047707;28;20102;-74
2023/04/13 00:20:31;;;;;;;3.60;1.60;;;;;;;-139.84;100.00;61778.28;5052972;28;20067;-76
2023/04/13 00:22:56;;;;;;;6.93;1.90;;;;;;;-139.84;100.00;61778.28;5030414;28;20021;-74
2023/04/13 00:25:22;;;;;;;5.30;2.03;;;;;;;-139.84;100.00;61778.28;5035978;28;20025;-73
2023/04/13 00:27:51;;;;;;;5.07;1.80;;;;;;;-139.84;100.00;61778.28;5044018;28;20021;-75
2023/04/13 00:30:18;;;;;;;2.83;1.50;;;;;;;-139.84;100.00;61778.28;5043706;28;20032;-74
2023/04/13 00:32:44;;;;;;;;;;;;;;;-139.84;100.00;61778.28;5043460;28;20024;-73
2023/04/13 00:35:12;;;;;;;4.13;1.83;;;;;;;-139.84;100.00;61778.28;5048826;28;19955;-74
2023/04/13 00:37:37;;;;;;;6.53;1.63;;;;;;;-139.84;100.00;61778.28;5045641;28;20034;-73
2023/04/13 00:40:05;;;;;;;3.30;1.23;;;;;;;-139.84;100.00;61778.28;5028327;28;20380;-74
2023/04/13 00:42:30;;;;;;;;;;;;;;;-139.84;100.00;61778.28;5049109;28;20025;-74
2023/04/13 00:44:55;;;;;;;5.50;1.45;;;;;;;-139.84;100.00;61778.28;5048779;28;20287;-76
2023/04/13 00:47:27;;;;;;;2.10;1.30;;;;;;;-139.84;100.00;61778.28;5050861;28;20033;-75
2023/04/13 00:49:54;;;;;;;3.70;1.60;;;;;;;-139.84;100.00;61778.28;5054570;28;20017;-74
2023/04/13 00:52:20;;;;;;;;;;;;;;;-139.84;100.00;61778.28;5063520;28;20472;-75
2023/04/13 00:54:47;;;;;;;5.82;1.50;;;;;;;-139.84;100.00;61778.28;5062480;28;19959;-74
2023/04/13 00:57:14;;;;;;;4.03;1.42;;;;;;;-139.84;100.00;61778.28;5051302;28;20052;-75
2023/04/13 00:59:40;;;;;;;3.28;1.30;;;;;;;-139.84;100.00;61778.28;5051708;28;20024;-75
2023/04/13 01:02:06;;;;;;;5.70;1.42;;;;;;;-139.84;100.00;61778.28;5060398;28;20048;-75
2023/04/13 01:04:33;;;;;;;9.63;1.77;;;;;;;-139.84;100.00;61778.28;5049077;28;20017;-75
2023/04/13 01:07:01;;;;;;;3.88;1.65;;;;;;;-139.84;100.00;61778.28;5036128;28;20481;-74
2023/04/13 01:09:39;;;;;;;3.58;1.75;;;;;;;-139.84;100.00;61778.28;5045283;28;20054;-74
2023/04/13 01:12:12;;;;;;;8.80;2.13;;;;;;;-139.84;100.00;61778.28;5047615;28;20031;-75
2023/04/13 01:14:46;;;;;;;3.97;1.92;;;;;;;-139.84;100.00;61778.28;5047250;28;20552;-75
2023/04/13 01:17:26;;;;;;;6.60;1.90;;;;;;;-139.84;100.00;61778.28;5045030;28;20071;-73
2023/04/13 01:19:57;;;;;;;4.60;2.42;;;;;;;-139.84;100.00;61778.28;5048691;28;20025;-73
2023/04/13 01:22:28;;;;;;;9.65;2.35;;;;;;;-139.84;100.00;61778.28;5047730;28;20029;-74
2023/04/13 01:25:16;;;;;;;5.85;1.83;;;;;;;-139.84;100.00;61778.28;5045996;28;20037;-74
2023/04/13 01:28:00;;;;;;;2.45;1.40;;;;;;;-139.84;100.00;61778.28;5036267;28;20029;-75
2023/04/13 01:30:27;;;;;;;6.47;2.92;;;;;;;-139.84;100.00;61778.28;5037201;28;20029;-74
2023/04/13 01:32:54;;;;;;;3.60;1.65;;;;;;;-139.84;100.00;61778.28;5047513;28;20021;-75
2023/04/13 01:35:21;;;;;;;4.57;1.60;;;;;;;-139.84;100.00;61778.28;5043098;28;20025;-74
2023/04/13 01:37:49;;;;;;;2.55;1.30;;;;;;;-139.84;100.00;61778.28;5048371;28;20029;-71
2023/04/13 01:40:14;;;;;;;3.58;1.30;;;;;;;-139.84;100.00;61778.28;5050663;28;20048;-75
2023/04/13 01:42:41;;;;;;;3.70;1.38;;;;;;;-139.84;100.00;61778.28;5036925;28;20013;-74
2023/04/13 01:45:12;;;;;;;5.07;1.20;;;;;;;-139.84;100.00;61778.28;5048712;28;20029;-74
2023/04/13 01:47:43;;;;;;;4.10;1.73;;;;;;;-139.84;100.00;61778.28;5047138;28;20033;-74
2023/04/13 01:50:24;;;;;;;7.78;1.23;;;;;;;-139.84;100.00;61778.28;5043721;28;20078;-76
2023/04/13 01:52:53;;;;;;;4.53;0.93;;;;;;;-139.84;100.00;61778.28;5043457;28;20040;-74
2023/04/13 01:55:21;;;;;;;4.50;1.15;;;;;;;-139.84;100.00;61778.28;5040916;28;20024;-76
2023/04/13 01:57:48;;;;;;;2.90;1.10;;;;;;;-139.84;100.00;61778.28;5046106;28;20041;-75
2023/04/13 02:00:17;;;;;;;8.57;1.30;;;;;;;-139.84;100.00;61778.28;5044516;28;20028;-75
2023/04/13 02:02:43;;;;;;;9.63;1.38;;;;;;;-139.84;100.00;61778.28;5042945;28;20132;-72
2023/04/13 02:05:09;;;;;;;4.63;1.00;;;;;;;-139.84;100.00;61778.28;5035599;28;20124;-73
2023/04/13 02:07:38;;;;;;;6.57;1.75;;;;;;;-139.84;100.00;61778.28;5041812;28;20104;-72
2023/04/13 02:10:05;;;;;;;5.47;0.98;;;;;;;-139.84;100.00;61778.28;5041700;28;20029;-73
2023/04/13 02:12:33;;;;;;;6.00;1.00;;;;;;;-139.84;100.00;61778.28;5044848;28;20393;-73
2023/04/13 02:15:00;;;;;;;5.18;0.93;;;;;;;-139.84;100.00;61778.28;5044803;28;20033;-73
2023/04/13 02:17:29;;;;;;;6.90;1.35;;;;;;;-139.84;100.00;61778.28;5042586;28;20040;-72
2023/04/13 02:19:56;;;;;;;3.72;1.13;;;;;;;-139.84;100.00;61778.28;5045194;28;20029;-72
2023/04/13 02:22:22;;;;;;;;;;;;;;;-139.84;100.00;61778.28;5031236;28;20086;-72
2023/04/13 02:24:49;;;;;;;4.38;1.23;;;;;;;-139.84;100.00;61778.28;5032613;28;20007;-72
2023/04/13 02:27:16;;;;;;;3.17;1.27;;;;;;;-139.84;100.00;61778.28;5044459;28;20040;-72
2023/04/13 02:29:42;;;;;;;9.52;1.40;;;;;;;-139.84;100.00;61778.28;5044423;28;20427;-73
2023/04/13 02:32:08;;;;;;;12.47;1.60;;;;;;;-139.84;100.00;61778.28;5024902;28;20037;-69
2023/04/13 02:34:34;;;;;;;17.17;1.33;;;;;;;-139.84;100.00;61778.28;5030442;28;21363;-69
2023/04/13 02:36:59;;;;;;;6.18;1.40;;;;;;;-139.84;100.00;61778.28;5026199;28;20036;-69
2023/04/13 02:39:25;;;;;;;7.57;1.58;;;;;;;-139.84;100.00;61778.28;5021527;28;20036;-69
2023/04/13 02:41:50;;;;;;;12.85;2.47;;;;;;;-139.84;100.00;61778.28;5047294;28;20144;-69
2023/04/13 02:44:17;;;;;;;8.32;1.45;;;;;;;-139.84;100.00;61778.28;5044885;28;20036;-69
2023/04/13 02:46:42;;;;;;;7.95;1.40;;;;;;;-139.84;100.00;61778.28;5042981;28;20111;-68
2023/04/13 02:49:08;;;;;;;4.53;1.05;;;;;;;-139.84;100.00;61778.28;5043599;28;20163;-68
2023/04/13 02:51:33;;;;;;;5.45;1.77;;;;;;;-139.84;100.00;61778.28;5044166;28;20075;-69
2023/04/13 02:54:01;;;;;;;9.65;1.42;;;;;;;-139.84;100.00;61778.28;5044752;28;20080;-69
2023/04/13 02:56:27;;;;;;;5.38;1.10;;;;;;;-139.84;100.00;61778.28;5043382;28;20104;-68
2023/04/13 02:58:52;;;;;;;7.57;1.60;;;;;;;-139.84;100.00;61778.28;5025655;28;20116;-69
2023/04/13 03:01:18;;;;;;;10.80;1.65;;;;;;;-139.84;100.00;61778.28;5040996;28;20040;-69
2023/04/13 03:03:44;;;;;;;13.38;1.60;;;;;;;-139.84;100.00;61778.28;5041009;28;20016;-69
2023/04/13 03:06:10;;;;;;;12.30;1.73;;;;;;;-139.84;100.00;61778.28;5040294;28;20040;-69
2023/04/13 03:08:35;;;;;;;8.65;1.75;;;;;;;-139.84;100.00;61778.28;5038219;28;20671;-69
2023/04/13 03:11:01;;;;;;;5.95;1.42;;;;;;;-139.84;100.00;61778.28;5040427;28;20035;-69
2023/04/13 03:13:26;;;;;;;3.70;1.20;;;;;;;-139.84;100.00;61778.28;5031026;28;20485;-68
2023/04/13 03:15:51;;;;;;;10.52;1.45;;;;;;;-139.84;100.00;61778.28;5029890;28;20075;-69
2023/04/13 03:18:17;;;;;;;14.60;2.33;;;;;;;-139.84;100.00;61778.28;5043111;28;20108;-69
2023/04/13 03:20:43;;;;;;;7.22;1.40;;;;;;;-139.84;100.00;61778.28;5040034;28;20045;-68
2023/04/13 03:23:09;;;;;;;5.38;1.45;;;;;;;-139.84;100.00;61778.28;5042595;28;20056;-68
2023/04/13 03:25:35;;;;;;;15.90;2.00;;;;;;;-139.84;100.00;61778.28;5046616;28;20021;-68
2023/04/13 03:28:00;;;;;;;4.72;1.75;;;;;;;-139.84;100.00;61778.28;5029407;28;20152;-68
2023/04/13 03:30:26;;;;;;;9.45;1.73;;;;;;;-139.84;100.00;61778.28;5021757;28;20524;-69
2023/04/13 03:32:51;;;;;;;9.55;1.90;;;;;;;-139.84;100.00;61778.28;5043099;28;20078;-69
2023/04/13 03:35:17;;;;;;;15.10;1.73;;;;;;;-139.84;100.00;61778.28;5039139;28;20056;-68
2023/04/13 03:37:43;;;;;;;9.20;1.58;;;;;;;-139.84;100.00;61778.28;5045460;28;20438;-68
2023/04/13 03:40:09;;;;;;;10.18;2.25;;;;;;;-139.84;100.00;61778.28;5041977;28;20029;-69
2023/04/13 03:42:36;;;;;;;10.53;1.60;;;;;;;-139.84;100.00;61778.28;5041283;28;20374;-68
2023/04/13 03:45:01;;;;;;;8.63;1.43;;;;;;;-139.84;100.00;61778.28;5042448;28;20373;-71
2023/04/13 03:47:27;;;;;;;4.82;1.55;;;;;;;-139.84;100.00;61778.28;5024644;28;20278;-68
2023/04/13 03:49:52;;;;;;;10.55;1.80;;;;;;;-139.84;100.00;61778.28;5032608;28;20094;-68
2023/04/13 03:52:18;;;;;;;7.28;1.45;;;;;;;-139.84;100.00;61778.28;5046200;28;20025;-69
2023/04/13 03:54:43;;;;;;;17.92;2.38;;;;;;;-139.84;100.00;61778.28;5027968;28;20028;-68
2023/04/13 03:57:08;;;;;;;9.70;2.05;;;;;;;-139.84;100.00;61778.28;5048508;28;20041;-69
2023/04/13 03:59:34;;;;;;;10.35;1.95;;;;;;;-139.84;100.00;61778.28;5035626;28;20404;-69
2023/04/13 04:02:01;;;;;;;15.45;1.85;;;;;;;-139.84;100.00;61778.28;5044183;28;20388;-68
2023/04/13 04:04:26;;;;;;;;;;;;;;;-139.84;100.00;61778.28;5044500;28;20428;-68
2023/04/13 04:06:52;;;;;;;12.25;1.90;;;;;;;-139.84;100.00;61778.28;5029606;28;19920;-69
2023/04/13 04:09:17;;;;;;;11.55;1.90;;;;;;;-139.84;100.00;61778.28;5045452;28;20164;-69
2023/04/13 04:11:43;;;;;;;9.63;1.88;;;;;;;-139.84;100.00;61778.28;5044999;28;20481;-68
2023/04/13 04:14:09;;;;;;;14.45;2.10;;;;;;;-139.84;100.00;61778.28;5047388;28;20035;-69
2023/04/13 04:16:34;;;;;;;9.18;1.88;;;;;;;-139.84;100.00;61778.28;5030709;28;20586;-69
2023/04/13 04:19:00;;;;;;;11.05;2.00;;;;;;;-139.84;100.00;61778.28;5046891;28;20032;-69
2023/04/13 04:21:32;;;;;;;12.77;2.13;;;;;;;-139.84;100.00;61778.28;5047698;28;20453;-69
2023/04/13 04:23:59;;;;;;;13.52;2.97;;;;;;;-139.84;100.00;61778.28;5031173;28;20473;-69
2023/04/13 04:26:25;;;;;;;7.63;2.20;;;;;;;-139.84;100.00;61778.28;5012018;28;20037;-70
2023/04/13 04:28:51;;;;;;;16.55;2.17;;;;;;;-139.84;100.00;61778.28;5047780;28;20043;-69
2023/04/13 04:31:16;;;;;;;8.40;1.65;;;;;;;-139.84;100.00;61778.28;5049289;28;20481;-69
2023/04/13 04:33:43;;;;;;;8.60;2.38;;;;;;;-139.84;100.00;61778.28;5050844;28;20048;-69
2023/04/13 04:36:12;;;;;;;12.23;1.90;;;;;;;-139.84;100.00;61778.28;5045397;28;20027;-69
2023/04/13 04:38:38;;;;;;;11.75;2.53;;;;;;;-139.84;100.00;61778.28;5043917;28;20052;-69
2023/04/13 04:41:04;;;;;;;9.07;1.93;;;;;;;-139.84;100.00;61778.28;5044700;28;20040;-69
2023/04/13 04:43:31;;;;;;;12.98;2.05;;;;;;;-139.84;100.00;61778.28;5041966;28;20080;-69
2023/04/13 04:45:56;;;;;;;12.32;1.73;;;;;;;-139.84;100.00;61778.28;5048735;28;20033;-69
2023/04/13 04:48:25;;;;;;;16.10;1.85;;;;;;;-139.84;100.00;61778.28;5045025;28;20108;-69
2023/04/13 04:50:54;;;;;;;10.20;2.08;;;;;;;-139.84;100.00;61778.28;5044179;28;20500;-69
2023/04/13 04:53:20;;;;;;;8.93;2.25;;;;;;;-139.84;100.00;61778.28;5045328;28;20021;-69
2023/04/13 04:55:45;;;;;;;9.00;2.00;;;;;;;-139.84;100.00;61778.28;5034487;28;20032;-69
2023/04/13 04:58:11;;;;;;;9.68;2.00;;;;;;;-139.84;100.00;61778.28;5028610;28;20033;-69
2023/04/13 05:00:37;;;;;;;7.78;1.73;;;;;;;-139.84;100.00;61778.28;5045572;28;20033;-68
2023/04/13 05:03:03;;;;;;;4.82;1.55;;;;;;;-139.84;100.00;61778.28;5043149;28;20024;-69
2023/04/13 05:05:29;;;;;;;9.25;1.60;;;;;;;-139.84;100.00;61778.28;5030798;28;20604;-69
2023/04/13 05:07:55;;;;;;;13.32;1.83;;;;;;;-139.84;100.00;61778.28;5032044;28;20036;-69
2023/04/13 05:10:23;;;;;;;7.57;1.83;;;;;;;-139.84;100.00;61778.28;5043794;28;20041;-69
2023/04/13 05:12:49;;;;;;;2.47;1.23;;;;;;;-139.84;100.00;61778.28;5028494;28;20098;-70
2023/04/13 05:15:15;;;;;;;13.25;1.85;;;;;;;-139.84;100.00;61778.28;5041207;28;20065;-69
2023/04/13 05:17:40;;;;;;;6.35;1.20;;;;;;;-139.84;100.00;61778.28;5045320;28;20500;-69
2023/04/13 05:20:06;;;;;;;6.35;1.30;;;;;;;-139.84;100.00;61778.28;5024625;28;20040;-69
2023/04/13 05:22:32;;;;;;;8.80;1.63;;;;;;;-139.84;100.00;61778.28;5039049;28;20037;-70
2023/04/13 05:24:57;;;;;;;3.95;1.17;;;;;;;-139.84;100.00;61778.28;5031861;28;20041;-69
2023/04/13 05:27:23;;;;;;;4.85;1.25;;;;;;;-139.84;100.00;61778.28;5043845;28;20079;-69
2023/04/13 05:29:48;;;;;;;4.60;1.30;;;;;;;-139.84;100.00;61778.28;5043731;28;20128;-69
2023/04/13 05:32:14;;;;;;;4.72;1.20;;;;;;;-139.84;100.00;61778.28;5045949;28;20362;-69
2023/04/13 05:34:39;;;;;;;5.47;1.38;;;;;;;-139.84;100.00;61778.28;5023536;28;20091;-68
2023/04/13 05:37:05;;;;;;;4.50;1.50;;;;;;;-139.84;100.00;61778.28;5028198;28;20038;-68
2023/04/13 05:39:32;;;;;;;6.72;1.60;;;;;;;-139.84;100.00;61778.28;5044376;28;20033;-69
2023/04/13 05:41:58;;;;;;;10.93;2.88;;;;;;;-139.84;100.00;61778.28;5043630;28;20108;-69
2023/04/13 05:44:23;;;;;;;6.60;2.50;;;;;;;-139.84;100.00;61778.28;5026934;28;20485;-69
2023/04/13 05:46:49;;;;;;;9.23;2.05;;;;;;;-139.84;100.00;61778.28;5027416;28;20554;-69
2023/04/13 05:49:15;;;;;;;7.97;1.80;;;;;;;-139.84;100.00;61778.28;5044471;28;20037;-69
2023/04/13 05:51:40;;;;;;;7.88;1.73;;;;;;;-139.84;100.00;61778.28;5029101;28;20443;-70
2023/04/13 05:54:08;;;;;;;10.05;2.08;;;;;;;-139.84;100.00;61778.28;5037254;28;20083;-69
2023/04/13 05:56:35;;;;;;;8.25;1.70;;;;;;;-139.84;100.00;61778.28;5030685;28;20032;-69
2023/04/13 05:59:03;;;;;;;7.57;1.90;;;;;;;-139.84;100.00;61778.28;5025673;28;20036;-69
2023/04/13 06:01:29;;;;;;;9.13;1.60;;;;;;;-139.84;100.00;61778.28;5031161;28;20488;-69
2023/04/13 06:03:55;;;;;;;14.27;2.38;;;;;;;-139.84;100.00;61778.28;5040605;28;20024;-69
2023/04/13 06:06:22;;;;;;;;;;;;;;;-139.84;100.00;61778.28;5044840;28;20053;-69
2023/04/13 06:08:48;;;;;;;9.98;1.85;;;;;;;-139.84;100.00;61778.28;5027474;28;19923;-69
2023/04/13 06:11:14;;;;;;;13.97;1.83;;;;;;;-139.84;100.00;61778.28;5045366;28;20025;-69
2023/04/13 06:13:40;;;;;;;10.68;1.77;;;;;;;-139.84;100.00;61778.28;5043481;28;20361;-69
2023/04/13 06:16:09;;;;;;;12.85;2.25;;;;;;;-139.84;100.00;61778.28;5042193;28;20040;-69
2023/04/13 06:18:36;;;;;;;18.45;2.45;;;;;;;-139.84;100.00;61778.28;5043401;28;20120;-69
2023/04/13 06:21:01;;;;;;;12.77;2.17;;;;;;;-139.84;100.00;61778.28;5042827;28;20518;-69
2023/04/13 06:23:26;;;;;;;16.80;2.58;;;;;;;-139.84;100.00;61778.28;5041744;28;20036;-69
2023/04/13 06:25:53;;;;;;;10.25;2.20;;;;;;;-139.84;100.00;61778.28;5043718;28;20507;-69
2023/04/13 06:28:19;;;;;;;16.80;3.90;;;;;;;-139.84;100.00;61778.28;5025913;28;20017;-68
2023/04/13 06:30:45;;;;;;;14.45;2.88;;;;;;;-139.84;100.00;61778.28;5039307;28;20044;-69
2023/04/13 06:33:14;;;;;;;16.87;3.37;;;;;;;-139.84;100.00;61778.28;5032476;28;20483;-68
2023/04/13 06:35:39;;;;;;;15.65;2.58;;;;;;;-139.84;100.00;61778.28;5039151;28;20673;-69
2023/04/13 06:38:08;;;;;;;20.17;2.80;;;;;;;-139.84;100.00;61778.28;5025748;28;20025;-69
2023/04/13 06:40:34;;;;;;;17.23;3.03;;;;;;;-139.84;100.00;61778.28;5042893;28;20079;-70
2023/04/13 06:43:00;;;;;;;26.52;4.10;;;;;;;-139.84;100.00;61778.28;5042262;28;20060;-70
2023/04/13 06:45:25;;;;;;;16.27;3.25;;;;;;;-139.84;100.00;61778.28;5040023;28;20468;-70
2023/04/13 06:47:51;;;;;;;36.65;4.78;;;;;;;-139.84;100.00;61778.28;5027017;28;20043;-69
2023/04/13 06:50:17;;;;;;;22.15;3.25;;;;;;;-139.84;100.00;61778.28;5048375;28;20025;-68
2023/04/13 06:52:45;;;;;;;13.13;3.17;;;;;;;-139.84;100.00;61778.28;5043018;28;20493;-68
2023/04/13 06:55:12;;;;;;;29.98;4.15;;;;;;;-139.84;100.00;61778.28;5046426;28;20024;-68
2023/04/13 06:57:37;;;;;;;21.30;3.40;;;;;;;-139.84;100.00;61778.28;5029295;28;20024;-69
2023/04/13 07:00:05;;;;;;;17.05;2.70;;;;;;;-139.84;100.00;61778.28;5043071;28;20056;-69
2023/04/13 07:02:30;;;;;;;23.95;3.90;;;;;;;-139.84;100.00;61778.28;5037874;28;20456;-69
2023/04/13 07:04:56;;;;;;;22.40;3.80;;;;;;;-139.84;100.00;61778.28;5027520;28;20029;-70
2023/04/13 07:07:21;;;;;;;16.35;3.13;;;;;;;-139.84;100.00;61778.28;5031097;28;20545;-69
2023/04/13 07:09:46;;;;;;;15.65;3.65;;;;;;;-139.84;100.00;61778.28;5048980;28;20102;-69
2023/04/13 07:12:12;;;;;;;25.67;3.88;;;;;;;-139.84;100.00;61778.28;5024275;28;20503;-69
2023/04/13 07:14:40;;;;;;;20.70;3.60;;;;;;;-139.84;100.00;61778.28;5025416;28;20665;-69
2023/04/13 07:17:05;;;;;;;32.58;4.50;;;;;;;-139.84;100.00;61778.28;5020683;28;20110;-69
2023/04/13 07:19:32;;;;;;;21.25;3.45;;;;;;;-139.84;100.00;61778.28;5052152;28;20025;-69
2023/04/13 07:21:59;;;;;;;;;;;;;;;-139.84;100.00;61778.28;5047684;28;20399;-69
2023/04/13 07:24:26;;;;;;;20.50;3.42;;;;;;;-139.84;100.00;61778.28;5047243;28;20016;-71
2023/04/13 07:26:57;;;;;;;29.20;4.22;;;;;;;-139.84;100.00;61778.28;5046123;28;20496;-69
2023/04/13 07:29:24;;;;;;;15.70;3.25;;;;;;;-139.84;100.00;61778.28;5032679;28;20086;-69
2023/04/13 07:31:49;;;;;;;22.52;3.65;;;;;;;-139.84;100.00;61778.28;5032214;28;20136;-68
2023/04/13 07:34:16;;;;;;;24.95;3.25;;;;;;;-139.84;100.00;61778.28;5048703;28;20115;-68
2023/04/13 07:36:41;;;;;;;15.13;2.87;;;;;;;-139.84;100.00;61778.28;5032641;28;20096;-69
2023/04/13 07:39:08;;;;;;;19.95;3.75;;;;;;;-139.84;100.00;61778.28;5031508;28;20324;-69
2023/04/13 07:41:34;;;;;;;15.43;2.65;;;;;;;-139.84;100.00;61778.28;5032923;28;20052;-69
2023/04/13 07:44:00;;;;;;;25.63;3.07;;;;;;;-139.84;100.00;61778.28;5033318;28;20403;-69
2023/04/13 07:46:26;;;;;;;20.33;3.65;;;;;;;-139.84;100.00;61778.28;5031446;28;20036;-70
2023/04/13 07:48:54;;;;;;;17.40;3.95;;;;;;;-139.84;100.00;61778.28;5048925;28;20028;-69
2023/04/13 07:51:20;;;;;;;17.75;3.33;;;;;;;-139.84;100.00;61778.28;5028173;28;20044;-69
2023/04/13 07:53:46;;;;;;;22.50;3.57;;;;;;;-139.84;100.00;61778.28;5027561;28;20052;-69
2023/04/13 07:56:12;;;;;;;23.17;3.55;;;;;;;-139.84;100.00;61778.28;5026958;28;20033;-69
2023/04/13 07:58:38;;;;;;;21.90;3.30;;;;;;;-139.84;100.00;61778.28;5038123;28;20566;-70
2023/04/13 08:01:03;;;;;;;16.07;3.10;;;;;;;-139.84;100.00;61778.28;5047293;28;20477;-69
2023/04/13 08:03:33;;;;;;;26.85;3.78;;;;;;;-139.84;100.00;61778.28;5047374;28;20055;-69
2023/04/13 08:05:58;;;;;;;21.17;2.78;;;;;;;-139.84;100.00;61778.28;5033855;28;20033;-70
2023/04/13 08:08:25;;;;;;;17.17;3.08;;;;;;;-139.84;100.00;61778.28;5043526;28;20516;-69
2023/04/13 08:10:52;;;;;;;26.35;3.72;;;;;;;-139.84;100.00;61778.28;5026242;28;20042;-70
2023/04/13 08:13:17;;;;;;;;;;;;;;;-139.84;100.00;61778.28;5029101;28;20112;-69
2023/04/13 08:15:44;;;;;;;19.52;3.22;;;;;;;-139.84;100.00;61778.28;5031911;28;20004;-69
2023/04/13 08:18:09;;;;;;;17.08;2.83;;;;;;;-139.84;100.00;61778.28;5023482;28;20404;-69
2023/04/13 08:20:39;;;;;;;22.10;3.20;;;;;;;-139.84;100.00;61778.28;5027679;28;20034;-71
2023/04/13 08:23:04;;;;;;;19.10;4.28;;;;;;;-139.84;100.00;61778.28;5026531;28;20071;-70
2023/04/13 08:25:30;;;;;;;15.45;3.10;;;;;;;-139.84;100.00;61778.28;5029731;28;20402;-69
2023/04/13 08:27:55;;;;;;;23.83;3.70;;;;;;;-139.84;100.00;61778.28;5022407;28;20025;-69
2023/04/13 08:30:21;;;;;;;29.05;3.95;;;;;;;-139.84;100.00;61778.28;5028642;28;20033;-69
2023/04/13 08:32:47;;;;;;;20.60;2.93;;;;;;;-139.84;100.00;61778.28;5029075;28;20029;-68
2023/04/13 08:35:12;;;;;;;18.05;3.20;;;;;;;-139.84;100.00;61778.28;5029806;28;20030;-70
2023/04/13 08:37:39;;;;;;;26.42;4.22;;;;;;;-139.84;100.00;61778.28;5025429;28;20129;-69
2023/04/13 08:40:06;;;;;;;20.58;3.08;;;;;;;-139.84;100.00;61778.28;5023592;28;20060;-69
2023/04/13 08:42:35;;;;;;;;;;;;;;;-139.84;100.00;61778.28;5030454;28;20560;-70
2023/04/13 08:45:02;;;;;;;22.02;3.72;;;;;;;-139.84;100.00;61778.28;5023264;28;19917;-69
2023/04/13 08:47:28;;;;;;;23.23;3.75;;;;;;;-139.84;100.00;61778.28;5024374;28;20029;-69
2023/04/13 08:49:58;;;;;;;20.70;3.13;;;;;;;-139.84;100.00;61778.28;5024611;28;20037;-69
2023/04/13 08:52:25;;;;;;;17.52;3.78;;;;;;;-139.84;100.00;61778.28;5023694;28;20208;-69
2023/04/13 08:54:52;;;;;;;26.17;3.60;;;;;;;-139.84;100.00;61778.28;5025595;28;20477;-69
2023/04/13 08:57:19;;;;;;;22.90;3.20;;;;;;;-139.84;100.00;61778.28;5023177;28;20025;-69
2023/04/13 08:59:46;;;;;;;19.77;3.00;;;;;;;-139.84;100.00;61778.28;5023622;28;20033;-68
2023/04/13 09:02:12;;;;;;;17.67;2.63;;;;;;;-139.84;100.00;61778.28;5026959;28;20065;-68
2023/04/13 09:04:41;;;;;;;20.53;3.37;;;;;;;-139.84;100.00;61778.28;5022970;28;20099;-69
2023/04/13 09:07:11;;;;;;;15.63;2.40;;;;;;;-139.84;100.00;61778.28;5022624;28;20282;-68
2023/04/13 09:09:41;;;;;;;17.40;3.03;;;;;;;-139.84;100.00;61778.28;5025794;28;20532;-69
2023/04/13 09:12:07;;;;;;;16.40;2.63;;;;;;;-139.84;100.00;61778.28;5022267;28;20026;-69
2023/04/13 09:14:36;;;;;;;26.13;3.47;;;;;;;-139.84;100.00;61778.28;5025658;28;20532;-69
2023/04/13 09:17:03;;;;;;;15.55;3.33;;;;;;;-139.84;100.00;61778.28;5023343;28;20454;-69
2023/04/13 09:19:30;;;;;;;19.35;3.83;;;;;;;-139.84;100.00;61778.28;5027165;28;20025;-69
2023/04/13 09:21:56;;;;;;;18.67;3.67;;;;;;;-139.84;100.00;61778.28;5024367;28;20033;-69
2023/04/13 09:24:23;;;;;;;19.70;3.20;;;;;;;-139.84;100.00;61778.28;5023076;28;20084;-69
2023/04/13 09:26:49;;;;;;;;;;;;;;;-139.84;100.00;61778.28;5036782;28;20212;-68
2023/04/13 09:29:16;;;;;;;19.67;3.10;;;;;;;-139.84;100.00;61778.28;5026395;28;19996;-69
2023/04/13 09:31:43;;;;;;;19.88;2.97;;;;;;;-139.84;100.00;61778.28;5037747;28;20047;-69
2023/04/13 09:34:09;;;;;;;20.00;3.58;;;;;;;-139.84;100.00;61778.28;5022896;28;20037;-68
2023/04/13 09:36:35;;;;;;;24.20;3.65;;;;;;;-139.84;100.00;61778.28;5022992;28;20124;-69
2023/04/13 09:39:02;;;;;;;22.80;3.53;;;;;;;-139.84;100.00;61778.28;5026229;28;20084;-69
2023/04/13 09:41:32;;;;;;;21.27;3.38;;;;;;;-139.84;100.00;61778.28;5021142;28;20267;-69
2023/04/13 09:43:59;;;;;;;22.27;3.92;;;;;;;-139.84;100.00;61778.28;5025787;28;20033;-68
2023/04/13 09:46:25;;;;;;;20.75;3.17;;;;;;;-139.84;100.00;61778.28;5021844;28;20489;-70
2023/04/13 09:49:01;;;;;;;18.10;3.30;;;;;;;-139.84;100.00;61778.28;5024026;28;20032;-68
2023/04/13 09:51:37;;;;;;;18.77;3.17;;;;;;;-139.84;100.00;61778.28;5023293;28;20028;-68
2023/04/13 09:54:06;;;;;;;16.08;2.33;;;;;;;-139.84;100.00;61778.28;5022832;28;20429;-68
2023/04/13 09:56:43;;;;;;;15.27;2.72;;;;;;;-139.84;100.00;61778.28;5025105;28;20494;-68
2023/04/13 09:59:08;;;;;;;9.93;2.63;;;;;;;-139.84;100.00;61778.28;5023869;28;20036;-68
2023/04/13 10:01:36;;;;;;;23.63;3.22;;;;;;;-139.84;100.00;61778.28;5026491;28;20112;-70
2023/04/13 10:04:05;;;;;;;20.17;3.20;;;;;;;-139.84;100.00;61778.28;5023675;28;20488;-68
2023/04/13 10:06:36;;;;;;;23.77;4.93;;;;;;;-139.84;100.00;61778.28;5024329;28;20473;-70
2023/04/13 10:09:02;;;;;;;22.88;2.72;;;;;;;-139.84;100.00;61778.28;5030215;28;20045;-69
2023/04/13 10:11:27;;;;;;;18.73;3.20;;;;;;;-139.84;100.00;61778.28;5044128;28;20380;-69
2023/04/13 10:13:57;;;;;;;24.30;4.00;;;;;;;-139.84;100.00;61778.28;5040382;28;20481;-69
2023/04/13 10:16:47;;;;;;;20.50;3.33;;;;;;;-139.84;100.00;61778.28;5028457;28;20061;-69
2023/04/13 10:19:17;;;;;;;20.65;2.80;;;;;;;-139.84;100.00;61778.28;5041965;28;20440;-68
2023/04/13 10:21:44;;;;;;;18.45;3.10;;;;;;;-139.84;100.00;61778.28;5041233;28;20090;-69
2023/04/13 10:24:11;;;;;;;26.50;3.53;;;;;;;-139.84;100.00;61778.28;5044200;28;20029;-69
2023/04/13 10:26:37;;;;;;;;;;;;;;;-139.84;100.00;61778.28;5046154;28;20032;-68
2023/04/13 10:29:04;;;;;;;24.05;3.28;;;;;;;-139.84;100.00;61778.28;5040030;28;19908;-69
2023/04/13 10:31:41;;;;;;;28.58;3.53;;;;;;;-139.84;100.00;61778.28;5028901;28;20312;-68
2023/04/13 10:34:07;;;;;;;;;;;;;;;-139.84;100.00;61778.28;5041925;28;20041;-69
2023/04/13 10:36:41;;;;;;;13.75;2.15;;;;;;;-139.84;100.00;61778.28;5023174;28;19917;-68
2023/04/13 10:39:08;;;;;;;12.75;2.70;;;;;;;-139.84;100.00;61778.28;5042650;28;20021;-70
2023/04/13 10:41:35;;;;;;;14.90;3.65;;;;;;;-139.84;100.00;61778.28;5042631;28;20037;-69
2023/04/13 10:44:09;;;;;;;21.58;4.15;;;;;;;-139.84;100.00;61778.28;5026263;28;20025;-68
2023/04/13 10:46:36;;;;;;;13.50;2.38;;;;;;;-139.84;100.00;61778.28;5041708;28;20049;-68
2023/04/13 10:49:03;;;;;;;13.35;2.05;;;;;;;-139.84;100.00;61778.28;5023827;28;20479;-68
2023/04/13 10:51:42;;;;;;;15.85;3.67;;;;;;;-139.84;100.00;61778.28;5043334;28;20040;-68
2023/04/13 10:54:08;;;;;;;16.75;2.55;;;;;;;-139.84;100.00;61778.28;5044079;28;20028;-68
2023/04/13 10:56:34;;;;;;;;;;;;;;;-139.84;100.00;61778.28;5043202;28;20037;-69
2023/04/13 10:59:00;;;;;;;14.10;2.40;;;;;;;-139.84;100.00;61778.28;5029629;28;19920;-69
2023/04/13 11:01:28;;;;;;;29.42;4.40;;;;;;;-139.84;100.00;61778.28;5040993;28;20029;-69
2023/04/13 11:03:55;;;;;;;13.23;2.60;;;;;;;-139.84;100.00;61778.28;5040186;28;20083;-68
2023/04/13 11:06:20;;;;;;;26.27;2.85;;;;;;;-139.84;100.00;61778.28;5027970;28;20024;-68